Time;durP1;ratioP1;P1;durP2;ratioP2;P2;SDS_P1;SDS_P2;PMS_P1;PMS_P2;Temp;Humidity;BMP_temperature;BMP_pressure;BME280_temperature;BME280_humidity;BME280_pressure;Samples;Min_cycle;Max_cycle;Signal;HPM_P1;HPM_P2
2021/04/14 00:01:33;;;;;;;7.80;3.20;;;5.00;99.90;;;;;;5033176;28;20994;-65
2021/04/14 00:04:02;;;;;;;6.43;2.30;;;5.00;99.90;;;;;;5040723;28;20211;-63
2021/04/14 00:06:29;;;;;;;5.90;2.40;;;4.90;99.90;;;;;;5041765;28;21239;-65
2021/04/14 00:08:57;;;;;;;8.37;2.57;;;4.90;99.90;;;;;;5045885;28;21165;-65
2021/04/14 00:11:23;;;;;;;9.07;2.90;;;4.80;99.90;;;;;;5033721;28;20626;-65
2021/04/14 00:14:04;;;;;;;6.00;2.47;;;4.80;99.90;;;;;;5041442;28;20648;-64
2021/04/14 00:16:35;;;;;;;5.60;2.30;;;4.80;99.90;;;;;;5044846;28;20579;-65
2021/04/14 00:19:07;;;;;;;6.97;3.20;;;4.80;99.90;;;;;;5047587;28;20618;-65
2021/04/14 00:21:46;;;;;;;9.17;3.00;;;4.80;99.90;;;;;;5044628;28;20719;-65
2021/04/14 00:24:16;;;;;;;6.47;2.90;;;4.90;99.90;;;;;;5056197;28;20626;-65
2021/04/14 00:26:45;;;;;;;6.80;2.73;;;4.80;99.90;;;;;;5040079;28;20642;-65
2021/04/14 00:29:22;;;;;;;4.20;2.90;;;4.80;99.90;;;;;;5049085;28;20633;-64
2021/04/14 00:31:50;;;;;;;5.70;2.70;;;4.80;99.90;;;;;;5066927;28;20606;-64
2021/04/14 00:34:31;;;;;;;7.17;2.83;;;4.80;99.90;;;;;;5052421;28;21345;-65
2021/04/14 00:37:10;;;;;;;7.87;3.23;;;4.80;99.90;;;;;;5044906;28;20669;-64
2021/04/14 00:39:38;;;;;;;7.27;3.27;;;4.80;99.90;;;;;;5048943;28;20614;-65
2021/04/14 00:42:14;;;;;;;7.53;2.70;;;4.90;99.90;;;;;;5036045;28;20639;-65
2021/04/14 00:44:39;;;;;;;9.10;3.23;;;5.00;99.90;;;;;;5044311;28;20642;-65
2021/04/14 00:47:17;;;;;;;3.70;3.20;;;4.90;99.90;;;;;;5043259;28;20668;-65
2021/04/14 00:49:46;;;;;;;12.33;3.20;;;4.80;99.90;;;;;;5033476;28;20196;-65
2021/04/14 00:52:27;;;;;;;9.07;3.33;;;4.70;99.90;;;;;;5043527;28;21148;-65
2021/04/14 00:54:55;;;;;;;6.63;2.80;;;4.70;99.90;;;;;;5043244;28;20660;-65
2021/04/14 00:57:28;;;;;;;6.10;3.00;;;4.80;99.90;;;;;;5039729;28;21222;-65
2021/04/14 00:59:53;;;;;;;9.67;3.50;;;4.70;99.90;;;;;;5045963;28;21042;-64
2021/04/14 01:02:21;;;;;;;10.67;3.20;;;4.60;99.90;;;;;;5043591;28;20745;-65
2021/04/14 01:04:49;;;;;;;8.50;2.87;;;4.60;99.90;;;;;;5042962;28;20719;-65
2021/04/14 01:07:18;;;;;;;6.30;3.10;;;4.60;99.90;;;;;;5035967;28;20854;-65
2021/04/14 01:09:49;;;;;;;7.87;3.20;;;4.60;99.90;;;;;;5041641;28;20633;-64
2021/04/14 01:12:25;;;;;;;8.63;2.90;;;4.60;99.90;;;;;;5041462;28;20641;-65
2021/04/14 01:14:53;;;;;;;7.70;3.37;;;4.60;99.90;;;;;;5038861;28;21168;-65
2021/04/14 01:17:23;;;;;;;9.47;3.27;;;4.50;99.90;;;;;;5042185;28;21076;-65
2021/04/14 01:19:51;;;;;;;7.67;3.20;;;4.50;99.90;;;;;;5047584;28;20617;-65
2021/04/14 01:22:17;;;;;;;5.87;3.57;;;4.40;99.90;;;;;;5040361;28;20976;-65
2021/04/14 01:24:55;;;;;;;8.90;3.43;;;4.50;99.90;;;;;;5044025;28;20913;-65
2021/04/14 01:27:23;;;;;;;8.13;2.93;;;4.50;99.90;;;;;;5041045;28;20184;-65
2021/04/14 01:29:58;;;;;;;8.83;3.30;;;4.60;99.90;;;;;;5043295;28;20626;-65
2021/04/14 01:32:29;;;;;;;8.90;3.67;;;4.50;99.90;;;;;;5041438;28;21109;-64
2021/04/14 01:34:55;;;;;;;7.77;3.30;;;4.60;99.90;;;;;;5045303;28;20749;-65
2021/04/14 01:37:31;;;;;;;7.50;3.10;;;4.50;99.90;;;;;;5042508;28;20638;-65
2021/04/14 01:39:56;;;;;;;9.70;2.83;;;4.50;99.90;;;;;;5040287;28;20601;-65
2021/04/14 01:42:30;;;;;;;8.70;2.70;;;4.40;99.90;;;;;;5043089;28;21001;-65
2021/04/14 01:45:08;;;;;;;6.83;3.23;;;4.40;99.90;;;;;;5039806;28;20223;-65
2021/04/14 01:47:38;;;;;;;14.60;4.00;;;4.40;99.90;;;;;;5045502;28;20622;-65
2021/04/14 01:50:08;;;;;;;8.80;3.50;;;4.30;99.90;;;;;;5043641;28;20587;-65
2021/04/14 01:52:41;;;;;;;10.57;4.40;;;4.40;99.90;;;;;;5038731;28;21059;-65
2021/04/14 01:55:09;;;;;;;8.20;4.10;;;4.30;99.90;;;;;;5046364;28;20630;-65
2021/04/14 01:57:47;;;;;;;6.07;3.30;;;4.40;99.90;;;;;;5041896;28;20674;-65
2021/04/14 02:00:22;;;;;;;18.33;3.37;;;4.30;99.90;;;;;;5044264;28;20616;-64
2021/04/14 02:02:54;;;;;;;11.27;3.70;;;4.20;99.90;;;;;;5045977;28;20670;-64
2021/04/14 02:05:27;;;;;;;7.83;3.10;;;4.30;99.90;;;;;;5043491;28;20686;-65
2021/04/14 02:07:57;;;;;;;9.13;3.40;;;4.20;99.90;;;;;;5039253;28;20579;-64
2021/04/14 02:10:38;;;;;;;10.70;3.70;;;4.20;99.90;;;;;;5042855;28;20734;-64
2021/04/14 02:13:07;;;;;;;11.97;3.33;;;4.20;99.90;;;;;;5040472;28;20633;-65
2021/04/14 02:15:34;;;;;;;12.20;3.93;;;4.20;99.90;;;;;;5047170;28;20668;-64
2021/04/14 02:18:01;;;;;;;7.00;3.43;;;4.30;99.90;;;;;;5050633;28;21169;-65
2021/04/14 02:20:37;;;;;;;7.40;3.17;;;4.30;99.90;;;;;;5044470;28;20611;-65
2021/04/14 02:23:22;;;;;;;5.50;3.00;;;4.30;99.90;;;;;;5045454;28;22958;-64
2021/04/14 02:25:48;;;;;;;7.63;2.63;;;4.20;99.90;;;;;;5045915;28;20645;-65
2021/04/14 02:28:17;;;;;;;10.03;3.10;;;4.20;99.90;;;;;;5045615;28;21152;-65
2021/04/14 02:30:50;;;;;;;7.87;3.30;;;4.30;99.90;;;;;;5044788;28;20679;-65
2021/04/14 02:33:27;;;;;;;7.67;2.97;;;4.30;99.90;;;;;;5034333;28;20644;-65
2021/04/14 02:35:59;;;;;;;4.83;2.67;;;4.30;99.90;;;;;;5046960;28;24149;-64
2021/04/14 02:38:37;;;;;;;4.30;2.40;;;4.20;99.90;;;;;;5043090;28;20983;-65
2021/04/14 02:41:12;;;;;;;4.70;3.00;;;4.20;99.90;;;;;;5043550;28;20602;-64
2021/04/14 02:43:43;;;;;;;4.20;2.70;;;4.10;99.90;;;;;;5024644;28;20616;-65
2021/04/14 02:46:08;;;;;;;7.33;2.80;;;4.10;99.90;;;;;;5022397;28;20661;-63
2021/04/14 02:48:34;;;;;;;4.00;2.37;;;4.10;99.90;;;;;;5049754;28;21000;-65
2021/04/14 02:51:09;;;;;;;4.87;2.63;;;4.00;99.90;;;;;;5041258;28;20200;-64
2021/04/14 02:53:38;;;;;;;8.20;3.43;;;4.00;99.90;;;;;;5034658;28;20198;-65
2021/04/14 02:56:08;;;;;;;8.37;3.33;;;4.00;99.90;;;;;;5047904;28;20680;-65
2021/04/14 02:58:43;;;;;;;6.53;2.50;;;4.00;99.90;;;;;;5061946;28;21115;-65
2021/04/14 03:01:16;;;;;;;7.70;2.83;;;4.10;99.90;;;;;;5066556;28;20617;-65
2021/04/14 03:03:45;;;;;;;8.87;2.87;;;4.10;99.90;;;;;;5058410;28;20692;-63
2021/04/14 03:06:16;;;;;;;6.33;3.20;;;4.10;99.90;;;;;;5063164;28;20637;-65
2021/04/14 03:08:47;;;;;;;6.00;2.73;;;4.00;99.90;;;;;;5058695;28;21186;-64
2021/04/14 03:11:15;;;;;;;5.30;3.13;;;3.90;99.90;;;;;;5062314;28;20624;-65
2021/04/14 03:13:43;;;;;;;7.67;3.57;;;4.00;99.90;;;;;;5069117;28;20608;-65
2021/04/14 03:16:26;;;;;;;6.20;3.20;;;4.00;99.90;;;;;;5072400;22;20662;-63
2021/04/14 03:19:04;;;;;;;4.00;2.50;;;4.00;99.90;;;;;;5030080;28;20584;-64
2021/04/14 03:21:34;;;;;;;4.50;2.80;;;4.10;99.90;;;;;;5039205;28;20653;-63
2021/04/14 03:24:15;;;;;;;;;;;;;;;;;;;;;
2021/04/14 03:26:54;;;;;;;15.20;4.60;;;3.90;99.90;;;;;;5023669;28;20631;-64
2021/04/14 03:29:20;;;;;;;6.07;3.50;;;3.90;99.90;;;;;;5020714;28;20614;-64
2021/04/14 03:31:54;;;;;;;4.10;3.00;;;3.90;99.90;;;;;;5021067;28;20623;-63
2021/04/14 03:34:24;;;;;;;6.70;3.37;;;3.90;99.90;;;;;;5020224;28;20216;-64
2021/04/14 03:36:56;;;;;;;5.30;3.70;;;3.90;99.90;;;;;;5042450;28;20651;-64
2021/04/14 03:39:27;;;;;;;9.27;3.40;;;3.90;99.90;;;;;;5023336;28;20917;-63
2021/04/14 03:41:55;;;;;;;12.53;3.60;;;3.80;99.90;;;;;;5023369;28;20584;-64
2021/04/14 03:44:21;;;;;;;8.30;4.10;;;3.90;99.90;;;;;;5027626;28;20936;-64
2021/04/14 03:46:53;;;;;;;7.20;3.70;;;3.80;99.90;;;;;;5026769;28;20633;-63
2021/04/14 03:49:24;;;;;;;9.17;3.90;;;3.80;99.90;;;;;;5025180;28;20266;-64
2021/04/14 03:51:54;;;;;;;12.80;3.60;;;3.80;99.90;;;;;;5025546;28;20643;-65
2021/04/14 03:54:30;;;;;;;6.90;3.43;;;3.90;99.90;;;;;;5026245;28;20596;-64
2021/04/14 03:57:01;;;;;;;7.90;3.97;;;3.80;99.90;;;;;;5025893;28;20782;-64
2021/04/14 03:59:29;;;;;;;4.60;3.50;;;3.80;99.90;;;;;;5023263;28;20603;-63
2021/04/14 04:02:02;;;;;;;8.00;4.00;;;3.90;99.90;;;;;;5033717;28;20707;-63
2021/04/14 04:04:30;;;;;;;5.50;3.40;;;3.80;99.90;;;;;;5025838;28;20726;-64
2021/04/14 04:07:00;;;;;;;5.50;3.43;;;3.80;99.90;;;;;;5026692;28;21088;-65
2021/04/14 04:09:28;;;;;;;7.10;3.90;;;3.80;99.90;;;;;;5028090;28;20666;-65
2021/04/14 04:11:57;;;;;;;6.20;4.13;;;3.70;99.90;;;;;;5023862;28;20634;-63
2021/04/14 04:14:33;;;;;;;7.63;3.67;;;3.60;99.90;;;;;;5029592;28;20625;-65
2021/04/14 04:17:01;;;;;;;7.97;3.83;;;3.60;99.90;;;;;;5008232;28;21190;-64
2021/04/14 04:19:27;;;;;;;7.43;4.30;;;3.60;99.90;;;;;;5007812;28;20631;-63
2021/04/14 04:21:57;;;;;;;4.40;3.80;;;3.50;99.90;;;;;;5006845;28;20616;-64
2021/04/14 04:24:25;;;;;;;6.80;3.50;;;3.50;99.90;;;;;;5007877;28;20658;-64
2021/04/14 04:27:03;;;;;;;6.43;3.40;;;3.50;99.90;;;;;;5005065;28;20779;-64
2021/04/14 04:29:47;;;;;;;9.47;3.60;;;3.50;99.90;;;;;;5002903;28;20686;-64
2021/04/14 04:32:15;;;;;;;5.40;3.70;;;3.50;99.90;;;;;;5006200;28;20708;-64
2021/04/14 04:34:43;;;;;;;8.43;3.90;;;3.50;99.90;;;;;;5013903;28;20652;-64
2021/04/14 04:37:14;;;;;;;7.73;3.50;;;3.50;99.90;;;;;;5003367;28;20995;-63
2021/04/14 04:39:49;;;;;;;6.63;4.10;;;3.50;99.90;;;;;;5018626;28;20688;-63
2021/04/14 04:42:26;;;;;;;5.57;2.93;;;3.50;99.90;;;;;;5009255;28;20620;-64
2021/04/14 04:44:54;;;;;;;7.77;3.60;;;3.40;99.90;;;;;;5001795;28;20782;-64
2021/04/14 04:47:19;;;;;;;6.57;3.70;;;3.50;99.90;;;;;;5007674;28;20683;-64
2021/04/14 04:49:55;;;;;;;6.13;3.57;;;3.50;99.90;;;;;;5004045;28;20974;-64
2021/04/14 04:52:20;;;;;;;5.50;3.50;;;3.50;99.90;;;;;;5008947;28;20181;-64
2021/04/14 04:55:04;;;;;;;9.27;3.90;;;3.60;99.90;;;;;;5006425;28;20667;-64
2021/04/14 04:57:32;;;;;;;4.93;3.30;;;3.60;99.90;;;;;;5004785;28;20210;-63
2021/04/14 05:00:00;;;;;;;6.97;3.47;;;3.60;99.90;;;;;;5005849;28;20605;-64
2021/04/14 05:05:20;;;;;;;6.53;2.93;;;3.80;99.90;;;;;;4996251;28;21233;-63
2021/04/14 05:07:51;;;;;;;5.43;3.27;;;3.70;99.90;;;;;;5004845;28;20608;-64
2021/04/14 05:10:19;;;;;;;4.93;2.80;;;3.80;99.90;;;;;;5002276;28;21427;-64
2021/04/14 05:12:52;;;;;;;6.33;2.63;;;3.80;99.90;;;;;;5008763;28;20607;-64
2021/04/14 05:15:28;;;;;;;6.97;3.50;;;3.90;99.90;;;;;;5003407;28;20705;-65
2021/04/14 05:17:54;;;;;;;4.80;3.03;;;3.80;99.90;;;;;;4987573;28;21714;-63
2021/04/14 05:20:20;;;;;;;6.90;4.47;;;3.80;99.90;;;;;;4986913;28;20616;-64
2021/04/14 05:22:46;;;;;;;8.87;3.10;;;3.90;99.90;;;;;;4997313;28;20604;-62
2021/04/14 05:25:14;;;;;;;6.83;3.13;;;4.00;99.90;;;;;;5002206;28;21296;-65
2021/04/14 05:27:42;;;;;;;8.93;3.80;;;4.00;99.90;;;;;;5000805;28;20205;-64
2021/04/14 05:30:08;;;;;;;9.70;4.73;;;4.10;99.90;;;;;;5003762;28;20624;-63
2021/04/14 05:32:34;;;;;;;6.37;3.23;;;4.10;99.90;;;;;;5002099;28;20719;-65
2021/04/14 05:34:59;;;;;;;5.47;3.20;;;4.20;99.90;;;;;;5002131;28;20746;-65
2021/04/14 05:37:27;;;;;;;5.10;2.97;;;4.20;99.90;;;;;;5000522;28;20209;-67
2021/04/14 05:39:53;;;;;;;5.73;3.00;;;4.30;99.90;;;;;;5014389;28;20197;-64
2021/04/14 05:42:19;;;;;;;6.13;3.40;;;4.30;99.90;;;;;;4997397;28;20686;-63
2021/04/14 05:44:45;;;;;;;6.63;3.00;;;4.40;99.90;;;;;;5002779;28;20678;-63
2021/04/14 05:47:12;;;;;;;5.83;2.73;;;4.30;99.90;;;;;;4988633;28;20198;-64
2021/04/14 05:49:38;;;;;;;7.20;3.30;;;4.30;99.90;;;;;;5001297;28;20259;-64
2021/04/14 05:52:04;;;;;;;4.37;2.70;;;4.50;99.90;;;;;;4994082;28;20645;-65
2021/04/14 05:54:30;;;;;;;4.43;2.70;;;4.50;99.90;;;;;;4982212;28;20601;-63
2021/04/14 05:56:57;;;;;;;5.00;3.00;;;4.40;99.90;;;;;;5002084;28;20629;-63
2021/04/14 05:59:22;;;;;;;4.97;2.60;;;4.40;99.90;;;;;;4994039;28;20182;-64
2021/04/14 06:01:48;;;;;;;7.20;3.10;;;4.40;99.90;;;;;;4994469;28;20731;-65
2021/04/14 06:04:16;;;;;;;8.53;3.00;;;4.50;99.90;;;;;;4999907;28;20198;-64
2021/04/14 06:06:42;;;;;;;6.57;2.67;;;4.50;99.90;;;;;;5018260;28;20291;-63
2021/04/14 06:09:09;;;;;;;5.70;3.00;;;4.50;99.90;;;;;;4995771;28;20676;-64
2021/04/14 06:11:36;;;;;;;8.80;2.87;;;4.50;99.90;;;;;;5002060;28;20205;-63
2021/04/14 06:14:03;;;;;;;4.67;2.90;;;4.50;99.90;;;;;;4997037;28;21174;-64
2021/04/14 06:16:29;;;;;;;7.07;3.10;;;4.60;99.90;;;;;;4992816;28;21421;-63
2021/04/14 06:18:54;;;;;;;3.87;2.30;;;4.50;99.90;;;;;;5000506;28;20715;-64
2021/04/14 06:21:20;;;;;;;5.07;3.57;;;4.60;99.90;;;;;;5011514;28;20277;-63
2021/04/14 06:23:47;;;;;;;5.00;2.67;;;4.60;99.90;;;;;;5006804;28;20185;-64
2021/04/14 06:26:26;;;;;;;7.07;3.03;;;4.60;99.90;;;;;;4991861;28;20225;-64
2021/04/14 06:28:54;;;;;;;5.80;3.73;;;4.80;99.90;;;;;;4985685;28;20617;-63
2021/04/14 06:31:20;;;;;;;5.30;2.53;;;4.70;99.90;;;;;;4991737;28;20627;-62
2021/04/14 06:33:49;;;;;;;3.53;2.43;;;4.70;99.90;;;;;;4984539;28;20624;-62
2021/04/14 06:36:15;;;;;;;3.90;2.20;;;4.80;99.90;;;;;;4993751;28;20648;-63
2021/04/14 06:38:44;;;;;;;4.03;2.13;;;4.90;99.90;;;;;;5009015;28;20617;-64
2021/04/14 06:41:54;;;;;;;3.03;2.40;;;4.90;99.90;;;;;;4996171;28;20205;-65
2021/04/14 06:44:42;;;;;;;6.60;2.60;;;4.90;99.90;;;;;;4985362;28;21080;-63
2021/04/14 06:47:17;;;;;;;3.57;1.73;;;5.10;99.90;;;;;;5016109;28;21245;-65
2021/04/14 06:49:53;;;;;;;2.03;1.83;;;5.20;99.90;;;;;;4997661;28;20616;-63
2021/04/14 06:52:34;;;;;;;5.63;2.57;;;5.20;99.90;;;;;;4988671;28;20662;-64
2021/04/14 06:55:10;;;;;;;2.97;2.10;;;5.20;99.90;;;;;;5007016;28;20656;-66
2021/04/14 06:57:49;;;;;;;4.97;2.40;;;5.30;99.90;;;;;;4995856;28;20663;-67
2021/04/14 07:00:28;;;;;;;4.80;2.00;;;5.40;99.90;;;;;;4994362;28;20733;-66
2021/04/14 07:03:04;;;;;;;6.60;2.30;;;5.30;99.90;;;;;;5014877;28;21198;-66
2021/04/14 07:05:38;;;;;;;3.87;1.97;;;5.40;99.90;;;;;;5021304;28;21194;-66
2021/04/14 07:08:09;;;;;;;6.40;2.07;;;5.50;99.90;;;;;;5038196;28;20681;-69
2021/04/14 07:10:36;;;;;;;4.10;1.80;;;5.50;99.90;;;;;;5015827;28;20658;-67
2021/04/14 07:13:10;;;;;;;8.40;1.73;;;5.50;99.90;;;;;;5021484;28;21033;-67
2021/04/14 07:15:36;;;;;;;7.23;2.07;;;5.60;99.90;;;;;;5024719;28;20647;-67
2021/04/14 07:18:32;;;;;;;5.67;2.17;;;5.60;99.90;;;;;;5023285;28;20689;-66
2021/04/14 07:21:18;;;;;;;5.60;1.90;;;5.70;99.90;;;;;;5020349;28;20315;-69
2021/04/14 07:23:53;;;;;;;5.07;2.33;;;5.80;99.90;;;;;;5030906;28;20678;-67
2021/04/14 07:26:31;;;;;;;5.33;1.87;;;6.00;99.90;;;;;;5021936;28;20654;-66
2021/04/14 07:29:10;;;;;;;2.10;1.90;;;6.10;99.90;;;;;;5013344;28;20603;-66
2021/04/14 07:31:52;;;;;;;4.03;1.80;;;6.20;99.90;;;;;;5023512;28;20618;-67
2021/04/14 07:34:55;;;;;;;4.37;2.23;;;6.30;99.90;;;;;;5036709;28;20640;-67
2021/04/14 07:37:36;;;;;;;4.47;1.70;;;6.40;99.90;;;;;;5021042;28;20670;-67
2021/04/14 07:40:10;;;;;;;2.20;1.67;;;6.30;99.90;;;;;;5042527;28;20622;-66
2021/04/14 07:42:58;;;;;;;4.43;1.90;;;6.50;99.90;;;;;;5026945;28;20782;-66
2021/04/14 07:45:29;;;;;;;5.83;1.80;;;6.60;99.90;;;;;;5023041;28;20818;-67
2021/04/14 07:48:10;;;;;;;4.83;1.97;;;6.80;99.90;;;;;;5045871;28;20622;-66
2021/04/14 07:50:39;;;;;;;3.97;2.37;;;6.80;99.90;;;;;;5029698;28;20651;-69
2021/04/14 07:53:25;;;;;;;5.00;2.63;;;6.80;99.90;;;;;;5029043;28;20670;-67
2021/04/14 07:56:04;;;;;;;4.03;1.80;;;6.90;99.90;;;;;;5025748;28;20666;-70
2021/04/14 07:58:31;;;;;;;4.73;2.07;;;7.20;99.90;;;;;;5030379;28;20632;-67
2021/04/14 08:01:16;;;;;;;3.77;1.77;;;7.20;99.90;;;;;;5020092;28;20649;-68
2021/04/14 08:03:41;;;;;;;3.73;1.47;;;7.00;99.90;;;;;;5018848;28;21162;-69
2021/04/14 08:06:11;;;;;;;5.97;1.83;;;7.00;99.90;;;;;;5017250;28;20649;-66
2021/04/14 08:08:39;;;;;;;2.33;1.70;;;6.90;99.90;;;;;;5016794;28;20200;-68
2021/04/14 08:11:10;;;;;;;2.13;1.70;;;6.80;99.90;;;;;;5018162;28;20683;-66
2021/04/14 08:13:40;;;;;;;4.40;1.67;;;6.80;99.90;;;;;;5032457;28;20627;-66
2021/04/14 08:16:36;;;;;;;4.23;1.47;;;6.70;99.90;;;;;;5016141;28;20647;-66
2021/04/14 08:19:34;;;;;;;2.70;1.80;;;6.70;99.90;;;;;;5012437;28;20622;-69
2021/04/14 08:22:19;;;;;;;2.97;1.43;;;6.60;99.90;;;;;;5019635;28;20777;-67
2021/04/14 08:24:48;;;;;;;3.43;1.37;;;6.60;99.90;;;;;;5015741;28;20670;-68
2021/04/14 08:27:15;;;;;;;2.57;1.60;;;6.80;99.90;;;;;;5020278;28;20630;-68
2021/04/14 08:29:40;;;;;;;2.33;1.50;;;6.80;99.90;;;;;;5024789;28;20618;-67
2021/04/14 08:32:10;;;;;;;1.57;1.47;;;6.80;99.90;;;;;;5021802;28;20627;-69
2021/04/14 08:34:37;;;;;;;6.80;1.80;;;7.00;99.90;;;;;;5019574;28;20296;-66
2021/04/14 08:37:19;;;;;;;2.10;1.30;;;7.10;99.90;;;;;;5018191;28;20720;-68
2021/04/14 08:39:52;;;;;;;5.00;1.50;;;7.00;99.90;;;;;;5017180;28;20623;-68
2021/04/14 08:42:21;;;;;;;2.70;1.43;;;7.10;99.90;;;;;;5018076;28;20604;-68
2021/04/14 08:45:18;;;;;;;5.13;1.73;;;7.10;99.90;;;;;;5013290;28;20681;-66
2021/04/14 08:48:07;;;;;;;5.53;1.67;;;7.30;99.90;;;;;;5005342;28;23327;-68
2021/04/14 08:50:37;;;;;;;2.60;1.47;;;7.50;99.90;;;;;;5015822;28;20623;-63
2021/04/14 08:53:15;;;;;;;4.27;1.60;;;7.60;99.90;;;;;;5015306;28;20604;-68
2021/04/14 08:55:41;;;;;;;5.80;1.83;;;7.60;99.90;;;;;;5019354;28;20749;-66
2021/04/14 08:58:08;;;;;;;3.60;1.50;;;7.60;99.90;;;;;;5018613;28;21046;-69
2021/04/14 09:00:33;;;;;;;2.80;1.50;;;7.70;99.90;;;;;;5016716;28;20660;-67
2021/04/14 09:03:03;;;;;;;3.13;1.53;;;7.70;99.90;;;;;;5019509;28;20662;-67
2021/04/14 09:05:29;;;;;;;5.10;1.80;;;7.80;99.90;;;;;;5016703;28;20227;-66
2021/04/14 09:07:57;;;;;;;3.70;1.60;;;7.90;99.90;;;;;;5023238;28;20623;-68
2021/04/14 09:10:59;;;;;;;3.60;1.80;;;8.00;99.90;;;;;;5036911;28;20635;-66
2021/04/14 09:13:32;;;;;;;2.70;1.40;;;8.20;99.90;;;;;;5032309;28;20988;-67
2021/04/14 09:16:01;;;;;;;1.53;1.43;;;8.20;99.90;;;;;;5046617;22;20736;-62
2021/04/14 09:18:33;;;;;;;2.20;1.67;;;8.20;99.90;;;;;;5024350;28;21055;-62
2021/04/14 09:21:17;;;;;;;3.03;1.40;;;8.20;99.90;;;;;;5036199;28;20702;-62
2021/04/14 09:24:06;;;;;;;3.33;1.63;;;8.20;99.90;;;;;;5016568;28;20658;-62
2021/04/14 09:26:35;;;;;;;3.20;1.40;;;8.30;99.90;;;;;;5037600;28;20632;-63
2021/04/14 09:29:01;;;;;;;4.83;2.30;;;8.50;99.90;;;;;;5019673;28;21202;-62
2021/04/14 09:31:42;;;;;;;3.97;1.60;;;8.50;99.90;;;;;;5046249;28;20647;-62
2021/04/14 09:34:18;;;;;;;4.67;1.53;;;8.40;99.90;;;;;;5044934;28;20656;-63
2021/04/14 09:36:48;;;;;;;5.90;1.50;;;8.30;99.90;;;;;;5042123;28;20996;-62
2021/04/14 09:39:37;;;;;;;4.63;1.67;;;8.20;99.90;;;;;;5028734;28;20626;-62
2021/04/14 09:42:15;;;;;;;1.40;1.23;;;8.20;99.90;;;;;;5021063;28;20608;-62
2021/04/14 09:44:44;;;;;;;4.57;1.60;;;8.30;99.90;;;;;;5045108;28;20579;-62
2021/04/14 09:47:30;;;;;;;3.70;1.50;;;8.40;99.90;;;;;;5039170;28;21232;-63
2021/04/14 09:50:00;;;;;;;3.30;1.70;;;8.40;99.90;;;;;;5040542;28;20623;-61
2021/04/14 09:52:51;;;;;;;3.23;1.67;;;8.40;99.90;;;;;;5043308;28;20619;-61
2021/04/14 09:55:33;;;;;;;5.00;1.80;;;8.50;99.90;;;;;;5032725;28;20636;-64
2021/04/14 09:58:05;;;;;;;4.73;1.70;;;8.50;99.90;;;;;;5037532;28;20625;-61
2021/04/14 10:00:32;;;;;;;2.63;1.60;;;8.60;99.90;;;;;;5038861;28;20739;-62
2021/04/14 10:03:05;;;;;;;2.23;1.50;;;8.70;99.90;;;;;;5038543;28;20611;-62
2021/04/14 10:05:32;;;;;;;3.57;1.50;;;8.70;99.90;;;;;;5033636;28;20647;-62
2021/04/14 10:08:03;;;;;;;4.47;1.10;;;8.70;99.90;;;;;;5038632;28;20638;-61
2021/04/14 10:10:30;;;;;;;2.85;1.63;;;8.80;99.90;;;;;;5035956;28;20740;-62
2021/04/14 10:12:57;;;;;;;3.20;1.33;;;9.00;99.90;;;;;;5034384;28;20183;-62
2021/04/14 10:15:34;;;;;;;2.87;1.40;;;9.10;99.90;;;;;;5034715;28;20728;-61
2021/04/14 10:18:17;;;;;;;3.83;1.43;;;9.30;99.90;;;;;;5023324;28;20643;-61
2021/04/14 10:20:42;;;;;;;4.17;1.13;;;9.40;99.90;;;;;;5035538;28;20614;-62
2021/04/14 10:23:18;;;;;;;4.27;1.47;;;9.60;99.90;;;;;;5050529;28;20649;-63
2021/04/14 10:25:44;;;;;;;2.80;1.13;;;9.70;99.90;;;;;;5033254;28;20722;-63
2021/04/14 10:28:18;;;;;;;1.97;1.00;;;9.70;99.90;;;;;;5051512;28;20642;-63
2021/04/14 10:30:46;;;;;;;2.30;1.00;;;9.70;99.90;;;;;;5053153;28;20180;-62
2021/04/14 10:33:21;;;;;;;3.10;1.20;;;9.70;99.90;;;;;;5049544;28;20630;-62
2021/04/14 10:35:49;;;;;;;3.57;1.60;;;9.70;99.90;;;;;;5020401;28;20696;-61
2021/04/14 10:38:29;;;;;;;1.90;1.07;;;9.60;99.90;;;;;;5040329;28;21161;-62
2021/04/14 10:40:55;;;;;;;2.17;1.20;;;9.60;99.90;;;;;;5057257;28;20622;-62
2021/04/14 10:43:24;;;;;;;3.07;1.33;;;9.70;99.90;;;;;;5047486;28;20619;-62
2021/04/14 10:45:55;;;;;;;1.53;1.30;;;9.80;99.90;;;;;;5027478;28;21266;-62
2021/04/14 10:48:22;;;;;;;2.63;1.40;;;9.80;99.90;;;;;;5042945;28;20622;-62
2021/04/14 10:50:48;;;;;;;1.60;1.17;;;9.90;99.90;;;;;;5025600;28;20713;-62
2021/04/14 10:53:15;;;;;;;1.87;1.10;;;9.90;99.90;;;;;;5045735;28;20717;-62
2021/04/14 10:55:48;;;;;;;2.83;1.33;;;9.90;99.90;;;;;;5035589;28;20646;-62
2021/04/14 10:58:21;;;;;;;2.57;1.13;;;10.00;99.90;;;;;;5034508;28;20660;-62
2021/04/14 11:00:49;;;;;;;1.93;1.40;;;10.10;99.90;;;;;;5039411;28;20667;-62
2021/04/14 11:03:17;;;;;;;5.00;1.30;;;10.00;99.90;;;;;;5041672;28;20626;-62
2021/04/14 11:05:56;;;;;;;2.70;1.37;;;9.90;99.90;;;;;;5033671;28;20646;-62
2021/04/14 11:08:23;;;;;;;1.83;1.60;;;9.80;99.90;;;;;;5038520;28;20591;-62
2021/04/14 11:10:49;;;;;;;1.43;1.10;;;9.70;99.90;;;;;;5038089;28;20721;-62
2021/04/14 11:13:20;;;;;;;1.80;1.07;;;9.80;99.90;;;;;;5022354;28;20624;-62
2021/04/14 11:15:50;;;;;;;1.97;1.17;;;9.80;99.90;;;;;;5040578;28;20646;-63
2021/04/14 11:18:18;;;;;;;2.20;1.10;;;9.90;99.90;;;;;;5030329;28;20710;-62
2021/04/14 11:20:57;;;;;;;1.87;1.20;;;10.00;99.90;;;;;;5039568;28;20978;-65
2021/04/14 11:23:26;;;;;;;1.83;1.30;;;10.00;99.90;;;;;;5041044;28;20692;-62
2021/04/14 11:26:05;;;;;;;3.23;1.37;;;10.10;99.90;;;;;;5027590;28;20662;-62
2021/04/14 11:28:46;;;;;;;4.50;1.20;;;10.10;99.90;;;;;;5037141;28;20679;-62
2021/04/14 11:31:33;;;;;;;3.60;1.83;;;10.00;99.90;;;;;;5037466;28;20647;-62
2021/04/14 11:34:11;;;;;;;2.30;1.37;;;10.00;99.90;;;;;;5042892;28;20698;-62
2021/04/14 11:36:38;;;;;;;2.30;1.20;;;9.90;99.90;;;;;;5024699;28;20670;-62
2021/04/14 11:39:17;;;;;;;1.83;1.23;;;9.90;99.90;;;;;;5039781;28;20639;-62
2021/04/14 11:41:45;;;;;;;1.87;1.37;;;9.80;99.90;;;;;;5037632;28;20583;-62
2021/04/14 11:44:27;;;;;;;2.63;1.20;;;9.80;99.90;;;;;;5033092;28;20665;-62
2021/04/14 11:47:02;;;;;;;2.00;1.37;;;9.90;99.90;;;;;;5037448;28;20803;-61
2021/04/14 11:49:36;;;;;;;3.50;1.20;;;10.00;99.90;;;;;;5023518;28;22172;-63
2021/04/14 11:52:35;;;;;;;1.87;1.17;;;10.20;99.90;;;;;;5042514;28;20605;-63
2021/04/14 11:55:19;;;;;;;1.60;1.10;;;10.30;99.90;;;;;;5033973;28;20642;-63
2021/04/14 11:57:46;;;;;;;1.60;1.20;;;10.40;99.90;;;;;;5038465;28;20788;-63
2021/04/14 12:00:26;;;;;;;2.10;1.00;;;10.60;99.90;;;;;;5017286;28;20649;-63
2021/04/14 12:02:59;;;;;;;4.70;1.60;;;10.90;99.90;;;;;;5037418;28;20583;-63
2021/04/14 12:05:25;;;;;;;6.33;1.97;;;11.00;99.90;;;;;;5020636;28;20651;-64
2021/04/14 12:07:50;;;;;;;1.63;1.30;;;11.10;99.90;;;;;;5035180;28;21009;-63
2021/04/14 12:10:16;;;;;;;2.80;1.30;;;11.20;99.90;;;;;;5038793;28;20564;-63
2021/04/14 12:12:42;;;;;;;1.80;1.13;;;10.90;99.90;;;;;;5043527;28;20946;-64
2021/04/14 12:15:11;;;;;;;0.97;0.93;;;10.80;99.90;;;;;;5041881;28;20297;-63
2021/04/14 12:17:37;;;;;;;2.23;1.10;;;10.60;99.90;;;;;;5037502;28;20308;-63
2021/04/14 12:20:04;;;;;;;1.10;0.93;;;10.40;99.90;;;;;;5043388;28;20714;-63
2021/04/14 12:22:32;;;;;;;1.00;1.00;;;10.20;99.90;;;;;;5038169;28;20184;-63
2021/04/14 12:25:01;;;;;;;2.83;1.20;;;10.10;99.90;;;;;;5036144;28;20646;-63
2021/04/14 12:27:29;;;;;;;2.00;1.40;;;10.00;99.90;;;;;;5027051;28;20919;-63
2021/04/14 12:29:55;;;;;;;1.40;1.30;;;10.00;99.90;;;;;;5042515;28;20610;-63
2021/04/14 12:32:21;;;;;;;4.50;1.10;;;9.90;99.90;;;;;;5042171;28;21031;-63
2021/04/14 12:34:47;;;;;;;2.00;1.30;;;9.90;99.90;;;;;;5046613;28;20201;-64
2021/04/14 12:37:13;;;;;;;2.60;1.17;;;9.90;99.90;;;;;;5043396;28;20647;-62
2021/04/14 12:39:39;;;;;;;1.80;1.07;;;9.80;99.90;;;;;;5028498;28;20697;-63
2021/04/14 12:42:05;;;;;;;2.73;1.23;;;9.80;99.90;;;;;;5024398;28;20602;-63
2021/04/14 12:44:30;;;;;;;1.40;1.30;;;9.90;99.90;;;;;;5044726;28;20187;-62
2021/04/14 12:46:56;;;;;;;1.30;0.90;;;9.80;99.90;;;;;;5045732;28;20185;-63
2021/04/14 12:49:23;;;;;;;1.17;1.00;;;9.80;99.90;;;;;;5039427;28;20267;-63
2021/04/14 12:52:01;;;;;;;2.27;1.10;;;9.80;99.90;;;;;;5041426;28;21064;-64
2021/04/14 12:54:31;;;;;;;3.40;1.00;;;9.80;99.90;;;;;;5021753;28;20623;-63
2021/04/14 12:57:20;;;;;;;1.67;1.13;;;9.90;99.90;;;;;;5045951;28;20657;-63
2021/04/14 12:59:49;;;;;;;1.53;1.10;;;10.00;99.90;;;;;;5039988;28;20730;-64
2021/04/14 13:02:28;;;;;;;2.87;1.10;;;10.10;99.90;;;;;;5038838;28;20617;-63
2021/04/14 13:05:01;;;;;;;4.80;1.60;;;10.30;99.90;;;;;;5034886;28;20665;-63
2021/04/14 13:07:41;;;;;;;1.63;1.30;;;10.60;99.90;;;;;;5038491;28;20705;-63
2021/04/14 13:10:09;;;;;;;2.73;1.50;;;10.80;99.90;;;;;;5019629;28;20626;-64
2021/04/14 13:12:40;;;;;;;2.23;1.30;;;11.20;99.90;;;;;;5034861;28;20853;-64
2021/04/14 13:15:13;;;;;;;2.33;1.50;;;11.70;99.90;;;;;;5039254;28;20654;-64
2021/04/14 13:17:46;;;;;;;1.50;1.40;;;12.00;99.90;;;;;;5021101;28;20752;-63
2021/04/14 13:20:13;;;;;;;3.40;1.60;;;12.10;99.90;;;;;;5040396;28;21101;-63
2021/04/14 13:22:46;;;;;;;2.30;1.53;;;12.10;99.90;;;;;;5038431;28;20718;-64
2021/04/14 13:25:42;;;;;;;5.10;2.03;;;12.20;99.90;;;;;;5035041;28;20657;-63